OEWD

Wadi Al Dawasir Airport

Saudi Arabia
TAF OEWD 182300Z 1900/2006 VRB03KT 6000 SKC TEMPO 1900/1912 3000 DU BECMG 1906/1908 11013KT
Issued Valid From Valid To
Jan-18 @ 23:00 UTC
(3 hours ago)
Jan-19 @ 00:00 UTC
(2 hours ago)
Jan-20 @ 06:00 UTC
(-1 days ago)
Jan-19 @ 00:00 to Jan-19 @ 06:00
TAF OEWD 182300Z 1900/2006 VRB03KT 6000 SKC
Wind Visibility Clouds
Variable at 3 knots 6,003 meters
  • Clear skies
Temporary Jan-19 @ 00:00 to Jan-19 @ 12:00
TEMPO 1900/1912 3000 DU
Visibility Conditions
2,993 meters
  • Dust
Becoming Jan-19 @ 06:00 to Jan-20 @ 06:00
BECMG 1906/1908 11013KT
Wind Visibility Clouds
110° at 13 knots 6,003 meters
  • Clear skies
TAF OEWD 182300Z 1900/2006 VRB03KT 6000 SKC TEMPO 1900/1912 3000 DU BECMG 1906/1908 11013KT
Issued Jan-18 @ 23:00 UTC
(3 hours ago)
Valid From Jan-19 @ 00:00 UTC
(2 hours ago)
Valid To Jan-20 @ 06:00 UTC
(-1 days ago)
Jan-19 @ 00:00 - Jan-19 @ 06:00
Wind Visibility
Variable at 3 knots 6,003 meters
Clouds
  • Clear skies
Temporary Jan-19 @ 00:00 - Jan-19 @ 12:00
Conditions
  • Dust
Becoming Jan-19 @ 06:00 - Jan-20 @ 06:00
Wind Visibility
110° at 13 knots 6,003 meters
Clouds
  • Clear skies